• Join FlightAware (Why Join?)
  • Login
  • US Flag 
11:47PM EDT


 

Airport Tracker/Info


-or-


 

Live Flight TrackerFlight Track Log ✈ SWA267 ✈ 15-Apr-2013 ✈ KBWI - KMHT

Flight Track Log - Related Links

Times and Time Zones

All times are in EDT time to prevent confusion due to time zone crossing. See the SWA267 flight status page for this flight to view local times or setup timezone preferences in your user account.

Time Position Orientation Groundspeed Altitude Reporting Facility
EDT Latitude Longitude Course Direction KTS MPH feet Rate Location/Type
02:10PM 39.1217 -76.5950 270° West 192 221 3,400  Level Washington Center
02:11PM 39.0892 -76.5169 118° Southeast 221 254 6,700 3,000 Climbing Washington Center
02:12PM 39.1022 -76.4208 80° East 235 270 9,500 2,520 Climbing Washington Center
02:13PM 39.1322 -76.3086 71° East 265 305 11,800 2,580 Climbing Washington Center
02:14PM 39.1578 -76.1886 75° East 307 353 14,700 2,460 Climbing Washington Center
02:15PM 39.1667 -76.6371 270° West  Level FlightAware Approximate
02:15PM 39.1708 -76.0547 83° East 341 392 16,800  Level Washington Center
02:16PM 39.1881 -75.9183 81° East 371 427 18,600 1,860 Climbing Washington Center
02:17PM 39.2528 -75.8061 53° Northeast 370 426 20,600 2,100 Climbing Washington Center
02:18PM 39.3322 -75.7017 45° Northeast 375 432 22,900 1,920 Climbing Washington Center
02:19PM 39.4114 -75.5997 45° Northeast 387 445 24,500 1,620 Climbing Washington Center
02:20PM 39.4969 -75.4894 45° Northeast 400 460 26,200 1,440 Climbing Washington Center
02:22PM 39.6650 -75.2664 46° Northeast 429 494 29,100 1,740 Climbing New York Center
02:23PM 39.7447 -75.1472 49° Northeast 435 501 31,700 2,100 Climbing New York Center
02:24PM 39.8239 -75.0361 47° Northeast 424 488 33,300 1,080 Climbing New York Center
02:25PM 39.9006 -74.9297 47° Northeast 419 482 33,900 840 Climbing New York Center
02:26PM 39.9883 -74.8022 48° Northeast 424 488 35,000 540 Climbing New York Center
02:27PM 40.0608 -74.6981 48° Northeast 432 497 35,000  Level New York Center
02:28PM 40.1525 -74.5700 47° Northeast 432 497 35,000  Level New York Center
02:29PM 40.2372 -74.4578 45° Northeast 427 491 35,000  Level New York Center
02:30PM 40.3300 -74.3594 39° Northeast 422 486 35,000  Level New York Center
02:31PM 40.4183 -74.2631 40° Northeast 417 480 35,000  Level New York Center
02:32PM 40.5194 -74.2219 17° North 387 445 35,000  Level New York Center
02:33PM 40.6222 -74.2025 North 376 433 35,000  Level New York Center
02:35PM 40.8617 -74.1608 North 379 436 35,000  Level Boston Center
02:36PM 40.9661 -74.1444 North 369 425 35,000  Level Boston Center
02:37PM 41.0644 -74.1250 North 369 425 35,000  Level Boston Center
02:38PM 41.1669 -74.1056 North 369 425 35,000  Level Boston Center
02:39PM 41.2650 -74.0886 North 369 425 35,000  Level Boston Center
02:40PM 41.3697 -74.0639 10° North 358 412 35,000  Level Boston Center
02:41PM 41.4531 -74.0492 North 358 412 35,000  Level Boston Center
02:42PM 41.5681 -74.0300 North 358 412 35,000  Level Boston Center
02:43PM 41.6664 -74.0131 North 358 412 35,000 -240 Level Boston Center
02:44PM 41.7667 -73.9931 North 358 412 34,600 -720 Descending Boston Center
02:45PM 41.8711 -73.9764 North 363 418 33,700 -900 Descending Boston Center
02:46PM 41.9858 -73.9539 North 388 447 32,800 -1,080 Descending Boston Center
02:47PM 42.1008 -73.9314 North 411 473 31,600 -1,860 Descending Boston Center
02:48PM 42.2161 -73.8950 13° North 416 479 29,100 -2,460 Descending Boston Center
02:49PM 42.3192 -73.8189 29° Northeast 408 470 26,700 -1,800 Descending Boston Center
02:50PM 42.3750 -73.6767 62° Northeast 394 453 25,600 -1,080 Descending Boston Center
02:51PM 42.4203 -73.5283 67° East 404 465 24,600 -1,020 Descending Boston Center
02:52PM 42.4653 -73.3858 67° East 404 465 23,600 -1,020 Descending Boston Center
02:53PM 42.5103 -73.2372 68° East 419 482 22,600 -1,020 Descending Boston Center
02:54PM 42.5528 -73.0911 68° East 412 474 21,600 -1,020 Descending Boston Center
02:55PM 42.5972 -72.9533 66° East 406 467 20,600 -1,020 Descending Boston Center
02:56PM 42.6375 -72.8069 69° East 406 467 19,600 -1,020 Descending Boston Center
02:57PM 42.6711 -72.6547 73° East 393 452 18,600 -360 Descending Boston Center
02:58PM 42.7025 -72.5078 74° East 393 452 19,000 -1,980 Climbing Boston Center
02:59PM 42.7317 -72.3694 74° East 393 452 14,700 -2,940 Descending Boston Center
03:00PM 42.7567 -72.2450 75° East 376 433 13,100 -1,920 Descending Boston Center
03:01PM 42.7856 -72.1064 74° East 359 413 11,000 -1,620 Descending Boston Center
03:02PM 42.8164 -72.0042 68° East 338 389 10,000 -1,200 Descending Boston Center
03:03PM 42.8617 -71.9019 59° Northeast 297 342 8,600 -1,320 Descending Boston Center
03:04PM 42.8969 -71.8194 60° Northeast 277 319 7,400 -1,620 Descending Boston Center
03:05PM 42.9400 -71.7169 60° Northeast 272 313 5,400 -1,560 Descending Boston Center
03:07PM 42.9792 -71.6369 56° Northeast 277 319 4,100 -1,020 Descending Boston Center
03:08PM 42.9992 -71.5317 75° East 246 283 3,200 -1,080 Descending Boston Center
03:09PM 43.0006 -71.4692 88° East 196 226 2,000 -1,200 Descending Boston Center
03:10PM 42.9672 -71.4556 163° South 118 136 900 -840 Descending Boston Center
03:11PM 42.9294 -71.4306 154° Southeast 133 153 400 9,120 Descending Boston Center
03:12PM 42.8939 -71.4114 158° South 133 153 19,000 9,180 Climbing Boston Center
03:13PM 42.8561 -71.3892 157° South 133 153 19,000  Level Boston Center
03:14PM 42.8267 -71.3728 158° South 133 153 19,000  Level Boston Center
03:15PM 42.7975 -71.3564 158° South 133 153 19,000  Level Boston Center
03:17PM 42.9167 -71.4333 316° Northwest  Level FlightAware Approximate
03:24PM 42.9328 -71.4358 316° Northwest  Level Estimated
03:25PM 42.9328 -71.4358 316° Northwest  Level Estimated
03:26PM 42.9328 -71.4358 316° Northwest  Level Estimated
03:27PM 42.9328 -71.4358 316° Northwest  Level Estimated